Terminal Aerodrome Forecast
Issued by NWS

Home | Current Version | Previous Version | Text Only | Print | Product List | Glossary On
Versions: 1 2 3 4 5 6 7 8 9 10 11 12 13 14 15 16 17 18 19 20 21 22 23 24
109
FTUS44 KLIX 030701 AAB
TAFGPT
TAF AMD
KGPT 030701Z 0307/0406 VRB03KT 3SM BR BKN010
     FM031000 33005KT 5SM BR BKN015
     FM031400 36007KT P6SM BKN025
     FM031500 36007KT P6SM BKN035
     FM040400 33011KT P6SM SCT040 BKN080=

USA.gov is the U.S. government's official web portal to all federal, state and local government web resources and services.